Etusivu
METAR-TAF:

METAR-TAF

Lentoasemat :

Caracas, Venezuela

Leveyspiiri: 10-36N, Pituuspiiri: 066-59W, korkeus merenpinnasta: 43 m

Tämänhetkinen sää

Tämä raportti tehtiin 1 tunti ja 1 minuuttia sitten, kello 09.00 UTC
Tuuli 3 kn lounaasta
Lämpötila 25°C
Kosteus 94%
Ilmanpaine 1011 hPa
Näkyvyys 10 km tai enemmän
Muutamia pilviä 1600 ft:n korkeudessa

METAR: SVMI 130900Z 23003KT 9999 FEW016 25/24 Q1011

Aika: 06:01 (10:01 UTC)

Sääennuste

Tämä raportti tehtiin 6 tuntia ja 1 minuuttia sitten, kello 04.00 UTC
Ennuste voimassa 13. päivästä klo 06 UTC - 14. päivään klo 06 UTC
Tuuli 9 kn pohjoisesta
Näkyvyys 10 km tai enemmän
Hajonneita pilviä 1600 ft:n korkeudessa
Ajoittain
13. päivästä klo 06 UTC - 13. päivään klo 10 UTC
Tuuli 6 kn lännestä
Näkyvyys: 9000 m
Hajonneita pilviä 1600 ft:n korkeudessa
heikkoa tihkusadetta

TAF: SVMI 130400Z 1306/1406 36009KT 9999 BKN016 TX31/28Z TN22/08Z TEMPO 1306/1310 27006KT 9000 -DZ BKN016

Säähavainnot ja -ennusteet yli 4000 lentoasemalta (METAR- ja TAF-raportit).

Käytössä olevat sääasemat on merkitty karttaan keltaisilla ja punaisilla pisteillä.

Aseta hiiri pisteen päälle nähdäksesi sääaseman nimen.

Klikkaa sitten nähdäksesi säähavainnot ja -ennusteet.

Kartan vaihtaminen: klikkaa mustalla rastilla varustettuja vihreitä pisteitä, niin voit zoomata sisään; viivalla varustettua vihreää pistettä, niin voit zoomata ulos tai vihreitä nuolia, niin pääset viereisille kartoille.


METAR-TAF: